createdAt,value
2022-10-21T00:02:59.410Z,93419.53
2022-10-21T00:06:03.949Z,93423.84
2022-10-21T00:09:07.087Z,93430.69
2022-10-21T00:12:10.115Z,93429.06
2022-10-21T00:15:13.383Z,93431.94
2022-10-21T00:18:16.395Z,93425.53
2022-10-21T00:21:22.335Z,93421.16
2022-10-21T00:24:25.511Z,93427.19
2022-10-21T00:27:28.686Z,93429.84
2022-10-21T00:30:31.804Z,93437.13
2022-10-21T00:33:35.125Z,93430.16
2022-10-21T00:36:38.152Z,93424.53
2022-10-21T00:39:41.557Z,93429.97
2022-10-21T00:42:46.677Z,93434.75
2022-10-21T00:45:53.618Z,93441.56
2022-10-21T00:48:59.378Z,93441.81
2022-10-21T00:52:05.186Z,93442.03
2022-10-21T00:55:08.581Z,93438.84
2022-10-21T00:58:12.861Z,93440.81
2022-10-21T01:01:19.230Z,93445.56
2022-10-21T01:04:24.606Z,93443.91
2022-10-21T01:07:28.082Z,93444.72
2022-10-21T01:10:31.280Z,93447.53
2022-10-21T01:13:49.361Z,93456.16
2022-10-21T01:17:43.717Z,93458.25
2022-10-21T01:21:17.970Z,93458.25
2022-10-21T01:24:51.204Z,93451.19
2022-10-21T01:28:19.123Z,93450.72
2022-10-21T01:31:26.092Z,93454.13
2022-10-21T01:34:39.564Z,93456.28
2022-10-21T01:37:58.921Z,93456.69
2022-10-21T01:41:27.503Z,93464.31
2022-10-21T01:44:52.133Z,93465.91
2022-10-21T01:48:19.607Z,93469.19
2022-10-21T01:54:45.275Z,93463.28
2022-10-21T01:57:54.596Z,93471.41
2022-10-21T02:01:01.315Z,93474.47
2022-10-21T02:04:06.595Z,93461.25
2022-10-21T02:07:10.203Z,93473.53
2022-10-21T02:10:13.398Z,93461.63
2022-10-21T02:13:23.633Z,93469.88
2022-10-21T02:16:31.297Z,93470.22
2022-10-21T02:19:34.496Z,93467.81
2022-10-21T02:22:39.775Z,93462.78
2022-10-21T02:25:46.979Z,93458.94
2022-10-21T02:28:51.397Z,93459.41
2022-10-21T02:32:13.612Z,93461.66
2022-10-21T02:35:37.936Z,93461.72
2022-10-21T02:39:04.073Z,93461.34
2022-10-21T02:42:10.633Z,93459.94
2022-10-21T02:45:13.774Z,93451.63
2022-10-21T02:48:17.260Z,93456.59
2022-10-21T02:51:20.332Z,93457.63
2022-10-21T02:54:23.907Z,93459.88
2022-10-21T02:57:27.054Z,93456.84
2022-10-21T03:00:32.743Z,93450.56
2022-10-21T03:03:36.178Z,93444.75
2022-10-21T03:06:39.211Z,93446.03
2022-10-21T03:09:42.372Z,93451.84
2022-10-21T03:12:45.377Z,93444.53
2022-10-21T03:15:50.440Z,93449.75
2022-10-21T03:18:53.952Z,93455.63
2022-10-21T03:21:57.261Z,93448.44
2022-10-21T03:25:00.254Z,93448.44
2022-10-21T03:28:04.787Z,93441.91
2022-10-21T03:31:10.997Z,93452.66
2022-10-21T03:34:14.093Z,93437.41
2022-10-21T03:37:17.241Z,93440.69
2022-10-21T03:40:20.364Z,93430.34
2022-10-21T03:43:23.472Z,93428.22
2022-10-21T03:46:26.527Z,93427.44
2022-10-21T03:49:29.793Z,93425.94
2022-10-21T03:52:32.764Z,93424.28
2022-10-21T03:55:36.007Z,93415.28
2022-10-21T03:58:39.161Z,93414.25
2022-10-21T04:01:42.650Z,93415.78
2022-10-21T04:04:45.820Z,93408.75
2022-10-21T04:07:50.787Z,93409.41
2022-10-21T04:10:58.422Z,93412.59
2022-10-21T04:14:01.486Z,93403.53
2022-10-21T04:17:07.636Z,93401.59
2022-10-21T04:20:12.134Z,93402.22
2022-10-21T04:23:15.649Z,93395.63
2022-10-21T04:26:18.799Z,93398.22
2022-10-21T04:29:22.037Z,93387.75
2022-10-21T04:32:25.227Z,93394.38
2022-10-21T04:35:28.401Z,93390.75
2022-10-21T04:38:31.428Z,93388.38
2022-10-21T04:41:34.526Z,93389.19
2022-10-21T04:44:40.208Z,93384.13
2022-10-21T04:47:43.326Z,93378.28
2022-10-21T04:50:48.821Z,93385.47
2022-10-21T04:53:51.923Z,93380.31
2022-10-21T04:56:54.973Z,93386.13
2022-10-21T04:59:58.001Z,93389.41
2022-10-21T05:03:01.139Z,93379.63
2022-10-21T05:06:04.313Z,93371.78
2022-10-21T05:09:07.434Z,93378.34
2022-10-21T05:12:10.511Z,93379.66
2022-10-21T05:15:15.266Z,93376.38
2022-10-21T05:18:18.444Z,93367.16
2022-10-21T05:21:21.512Z,93372.44
2022-10-21T05:24:24.839Z,93359.34
2022-10-21T05:27:27.935Z,93362.63
2022-10-21T05:30:31.036Z,93356.72
2022-10-21T05:33:34.329Z,93348.84
2022-10-21T05:36:38.015Z,93350.16
2022-10-21T05:42:49.006Z,93355.41
2022-10-21T05:45:52.015Z,93353.44
2022-10-21T05:48:55.026Z,93352.78
2022-10-21T05:51:58.233Z,93353.41
2022-10-21T05:55:01.228Z,93340.97
2022-10-21T05:58:04.309Z,93337.06
2022-10-21T06:01:08.057Z,93340.97
2022-10-21T06:04:11.249Z,93340.31
2022-10-21T06:07:14.351Z,93337.75
2022-10-21T06:10:18.391Z,93328.53
2022-10-21T06:13:21.392Z,93331.81
2022-10-21T06:16:24.696Z,93324.59
2022-10-21T06:19:27.701Z,93331.16
2022-10-21T06:22:30.756Z,93337.03
2022-10-21T06:25:33.703Z,93325.22
2022-10-21T06:28:38.188Z,93327.09
2022-10-21T06:31:41.329Z,93320.47
2022-10-21T06:34:44.329Z,93319.09
2022-10-21T06:37:47.350Z,93319.66
2022-10-21T06:40:51.424Z,93313.06
2022-10-21T06:43:54.479Z,93305.78
2022-10-21T06:46:57.475Z,93302.41
2022-10-21T06:50:03.774Z,93306.97
2022-10-21T06:53:06.895Z,93302.44
2022-10-21T06:56:18.652Z,93299.97
2022-10-21T06:59:21.755Z,93301.94
2022-10-21T07:02:25.032Z,93304.63
2022-10-21T07:05:28.051Z,93300.75
2022-10-21T07:08:47.034Z,93290.97
2022-10-21T07:11:55.815Z,93291.78
2022-10-21T07:14:58.856Z,93293.06
2022-10-21T07:18:01.829Z,93286.47
2022-10-21T07:21:07.374Z,93295.56
2022-10-21T07:24:10.767Z,93286.97
2022-10-21T07:27:13.831Z,93281.66
2022-10-21T07:30:17.057Z,93285.53
2022-10-21T07:33:20.220Z,93289.38
2022-10-21T07:36:26.258Z,93286.06
2022-10-21T07:39:29.657Z,93286.66
2022-10-21T07:42:32.718Z,93286.00
2022-10-21T07:45:40.779Z,93282.66
2022-10-21T07:48:43.875Z,93277.34
2022-10-21T07:51:47.913Z,93284.47
2022-10-21T07:54:50.912Z,93279.22
2022-10-21T07:57:53.942Z,93285.03
2022-10-21T08:01:01.632Z,93293.47
2022-10-21T08:04:04.838Z,93287.56
2022-10-21T08:07:10.304Z,93287.56
2022-10-21T08:10:16.697Z,93291.50
2022-10-21T08:13:20.146Z,93292.19
2022-10-21T08:16:24.307Z,93290.25
2022-10-21T08:19:30.155Z,93290.25
2022-10-21T08:22:33.181Z,93292.88
2022-10-21T08:25:37.038Z,93290.25
2022-10-21T08:28:40.412Z,93285.06
2022-10-21T08:31:43.694Z,93285.03
2022-10-21T08:34:46.862Z,93281.66
2022-10-21T08:37:50.438Z,93280.09
2022-10-21T08:40:55.646Z,93283.81
2022-10-21T08:44:24.108Z,93281.06
2022-10-21T08:47:38.506Z,93282.91
2022-10-21T08:50:47.742Z,93280.78
2022-10-21T08:53:56.509Z,93281.25
2022-10-21T08:57:01.063Z,93284.31
2022-10-21T09:00:15.986Z,93286.25
2022-10-21T09:03:37.893Z,93284.31
2022-10-21T09:07:03.521Z,93282.28
2022-10-21T09:10:29.527Z,93281.75
2022-10-21T09:14:03.058Z,93284.16
2022-10-21T09:17:19.095Z,93290.63
2022-10-21T09:20:33.114Z,93282.72
2022-10-21T09:24:19.798Z,93280.03
2022-10-21T09:27:32.169Z,93281.16
2022-10-21T09:30:47.187Z,93284.22
2022-10-21T09:34:00.280Z,93288.78
2022-10-21T09:37:06.302Z,93288.00
2022-10-21T09:40:22.716Z,93295.75
2022-10-21T09:43:29.371Z,93291.63
2022-10-21T09:46:32.660Z,93288.25
2022-10-21T09:50:05.288Z,93288.25
2022-10-21T09:53:22.660Z,93294.84
2022-10-21T09:56:47.522Z,93299.28
2022-10-21T10:00:01.411Z,93296.56
2022-10-21T10:03:14.527Z,93293.78
2022-10-21T10:06:39.641Z,93289.81
2022-10-21T10:09:47.426Z,93295.50
2022-10-21T10:12:58.675Z,93295.91
2022-10-21T10:16:30.002Z,93301.47
2022-10-21T10:19:33.053Z,93297.81
2022-10-21T10:22:38.849Z,93301.94
2022-10-21T10:25:42.148Z,93300.16
2022-10-21T10:28:51.538Z,93299.31
2022-10-21T10:31:58.296Z,93304.84
2022-10-21T10:35:05.575Z,93295.97
2022-10-21T10:38:08.799Z,93300.75
2022-10-21T10:41:13.167Z,93308.22
2022-10-21T10:44:40.480Z,93305.22
2022-10-21T10:47:48.392Z,93311.06
2022-10-21T10:50:55.457Z,93307.13
2022-10-21T10:54:18.655Z,93309.63
2022-10-21T10:57:34.149Z,93310.63
2022-10-21T11:00:49.254Z,93313.72
2022-10-21T11:03:58.260Z,93316.19
2022-10-21T11:07:15.736Z,93318.84
2022-10-21T11:10:43.847Z,93312.94
2022-10-21T11:13:47.150Z,93310.09
2022-10-21T11:17:17.625Z,93310.53
2022-10-21T11:20:40.125Z,93316.50
2022-10-21T11:24:05.836Z,93316.81
2022-10-21T11:27:46.017Z,93321.09
2022-10-21T11:30:52.036Z,93315.03
2022-10-21T11:34:08.418Z,93320.56
2022-10-21T11:37:50.660Z,93322.94
2022-10-21T11:41:03.161Z,93332.34
2022-10-21T11:44:13.465Z,93327.44
2022-10-21T11:47:27.778Z,93326.66
2022-10-21T11:50:42.391Z,93329.78
2022-10-21T11:54:11.343Z,93338.16
2022-10-21T11:57:26.387Z,93331.59
2022-10-21T12:00:39.509Z,93340.56
2022-10-21T12:04:15.307Z,93342.91
2022-10-21T12:07:23.885Z,93342.78
2022-10-21T12:10:47.423Z,93349.09
2022-10-21T12:13:58.269Z,93343.19
2022-10-21T12:17:06.510Z,93347.22
2022-10-21T12:20:23.007Z,93355.72
2022-10-21T12:23:30.748Z,93347.69
2022-10-21T12:26:43.475Z,93350.88
2022-10-21T12:30:01.553Z,93350.81
2022-10-21T12:33:17.908Z,93353.38
2022-10-21T12:36:24.156Z,93358.72
2022-10-21T12:39:51.121Z,93352.59
2022-10-21T12:43:06.746Z,93348.47
2022-10-21T12:46:13.577Z,93355.78
2022-10-21T12:49:21.587Z,93344.97
2022-10-21T12:52:26.811Z,93357.44
2022-10-21T12:55:30.976Z,93363.91
2022-10-21T12:58:40.031Z,93359.50
2022-10-21T13:01:45.869Z,93360.75
2022-10-21T13:04:51.964Z,93358.81
2022-10-21T13:08:20.990Z,93359.63
2022-10-21T13:11:25.889Z,93363.53
2022-10-21T13:14:35.402Z,93371.22
2022-10-21T13:17:53.400Z,93368.63
2022-10-21T13:20:59.859Z,93362.16
2022-10-21T13:24:27.293Z,93361.50
2022-10-21T13:30:38.712Z,93355.53
2022-10-21T13:33:55.570Z,93358.03
2022-10-21T13:36:58.975Z,93357.81
2022-10-21T13:40:05.177Z,93366.25
2022-10-21T13:43:22.662Z,93361.34
2022-10-21T13:46:28.215Z,93364.59
2022-10-21T13:49:34.129Z,93356.78
2022-10-21T13:52:38.830Z,93361.88
2022-10-21T13:55:41.971Z,93362.31
2022-10-21T13:58:45.122Z,93365.50
2022-10-21T14:01:57.771Z,93366.78
2022-10-21T14:05:00.985Z,93364.66
2022-10-21T14:08:06.103Z,93367.47
2022-10-21T14:11:19.284Z,93371.88
2022-10-21T14:14:25.470Z,93371.97
2022-10-21T14:17:29.164Z,93370.06
2022-10-21T14:20:38.249Z,93376.53
2022-10-21T14:23:45.010Z,93371.88
2022-10-21T14:26:48.106Z,93378.84
2022-10-21T14:29:51.278Z,93381.22
2022-10-21T14:32:54.742Z,93386.03
2022-10-21T14:36:10.419Z,93387.00
2022-10-21T14:39:21.686Z,93383.88
2022-10-21T14:42:26.296Z,93385.50
2022-10-21T14:45:35.454Z,93383.19
2022-10-21T14:48:49.205Z,93376.25
2022-10-21T14:52:00.246Z,93377.91
2022-10-21T14:55:08.823Z,93374.59
2022-10-21T14:58:23.480Z,93383.50
2022-10-21T15:01:27.622Z,93385.91
2022-10-21T15:04:53.022Z,93378.44
2022-10-21T15:08:14.298Z,93384.75
2022-10-21T15:11:21.434Z,93372.69
2022-10-21T15:14:32.707Z,93381.34
2022-10-21T15:17:36.084Z,93378.63
2022-10-21T15:20:39.365Z,93382.19
2022-10-21T15:23:55.079Z,93382.84
2022-10-21T15:27:00.411Z,93386.69
2022-10-21T15:30:16.032Z,93386.59
2022-10-21T15:33:19.073Z,93382.84
2022-10-21T15:36:22.809Z,93377.69
2022-10-21T15:39:25.868Z,93379.63
2022-10-21T15:42:28.881Z,93383.28
2022-10-21T15:45:31.911Z,93381.84
2022-10-21T15:48:35.218Z,93386.00
2022-10-21T15:51:38.286Z,93377.69
2022-10-21T15:54:42.230Z,93387.59
2022-10-21T15:57:45.484Z,93384.25
2022-10-21T16:00:48.568Z,93382.75
2022-10-21T16:03:51.714Z,93387.19
2022-10-21T16:06:55.405Z,93389.41
2022-10-21T16:09:58.562Z,93387.22
2022-10-21T16:13:01.841Z,93387.47
2022-10-21T16:16:06.014Z,93384.13
2022-10-21T16:19:10.564Z,93382.22
2022-10-21T16:22:19.327Z,93390.44
2022-10-21T16:25:22.562Z,93381.22
2022-10-21T16:28:25.751Z,93379.44
2022-10-21T16:31:29.059Z,93379.31
2022-10-21T16:34:32.054Z,93374.84
2022-10-21T16:37:35.092Z,93372.75
2022-10-21T16:40:38.222Z,93374.94
2022-10-21T16:43:41.652Z,93373.59
2022-10-21T16:46:56.572Z,93369.16
2022-10-21T16:50:02.370Z,93360.84
2022-10-21T16:53:05.998Z,93374.66
2022-10-21T16:56:09.893Z,93371.69
2022-10-21T16:59:13.109Z,93367.22
2022-10-21T17:02:20.973Z,93365.78
2022-10-21T17:05:24.199Z,93372.66
2022-10-21T17:08:27.394Z,93377.22
2022-10-21T17:11:36.681Z,93367.03
2022-10-21T17:14:42.204Z,93369.50
2022-10-21T17:17:45.421Z,93368.28
2022-10-21T17:20:50.456Z,93366.84
2022-10-21T17:23:54.789Z,93379.81
2022-10-21T17:26:58.350Z,93374.75
2022-10-21T17:30:01.348Z,93366.31
2022-10-21T17:33:04.410Z,93367.06
2022-10-21T17:36:08.114Z,93371.25
2022-10-21T17:39:11.352Z,93371.16
2022-10-21T17:42:18.174Z,93372.31
2022-10-21T17:45:22.483Z,93376.41
2022-10-21T17:48:26.701Z,93370.25
2022-10-21T17:51:30.890Z,93368.34
2022-10-21T17:54:36.124Z,93365.00
2022-10-21T17:57:39.402Z,93368.50
2022-10-21T18:00:44.591Z,93364.09
2022-10-21T18:03:49.402Z,93376.06
2022-10-21T18:06:52.629Z,93377.06
2022-10-21T18:09:56.848Z,93370.31
2022-10-21T18:12:59.806Z,93371.34
2022-10-21T18:16:06.067Z,93361.78
2022-10-21T18:19:09.366Z,93365.34
2022-10-21T18:22:13.016Z,93377.97
2022-10-21T18:25:16.360Z,93367.81
2022-10-21T18:28:19.386Z,93370.06
2022-10-21T18:31:22.418Z,93363.13
2022-10-21T18:34:25.626Z,93361.13
2022-10-21T18:37:28.659Z,93358.09
2022-10-21T18:40:31.895Z,93362.41
2022-10-21T18:43:36.392Z,93356.97
2022-10-21T18:46:42.141Z,93359.75
2022-10-21T18:49:45.151Z,93355.00
2022-10-21T18:52:48.137Z,93363.88
2022-10-21T18:55:51.190Z,93352.59
2022-10-21T18:58:56.951Z,93361.78
2022-10-21T19:02:00.581Z,93366.06
2022-10-21T19:05:03.883Z,93360.44
2022-10-21T19:08:06.892Z,93371.09
2022-10-21T19:11:09.943Z,93363.38
2022-10-21T19:14:14.550Z,93367.75
2022-10-21T19:17:17.996Z,93365.75
2022-10-21T19:20:21.097Z,93375.19
2022-10-21T19:23:24.157Z,93364.97
2022-10-21T19:26:27.170Z,93356.69
2022-10-21T19:29:30.403Z,93349.59
2022-10-21T19:32:33.471Z,93347.38
2022-10-21T19:35:37.709Z,93346.91
2022-10-21T19:38:44.472Z,93344.28
2022-10-21T19:41:48.454Z,93353.41
2022-10-21T19:44:51.644Z,93352.50
2022-10-21T19:47:54.847Z,93354.22
2022-10-21T19:51:00.009Z,93345.09
2022-10-21T19:54:05.753Z,93352.34
2022-10-21T19:57:08.728Z,93348.28
2022-10-21T20:00:12.946Z,93348.69
2022-10-21T20:03:15.829Z,93349.44
2022-10-21T20:06:25.871Z,93352.50
2022-10-21T20:09:28.927Z,93357.19
2022-10-21T20:12:32.503Z,93361.66
2022-10-21T20:15:36.684Z,93354.97
2022-10-21T20:18:39.692Z,93354.25
2022-10-21T20:21:43.464Z,93350.06
2022-10-21T20:24:46.667Z,93349.44
2022-10-21T20:27:49.783Z,93346.56
2022-10-21T20:31:10.417Z,93349.44
2022-10-21T20:34:14.462Z,93355.78
2022-10-21T20:37:17.531Z,93354.34
2022-10-21T20:40:21.321Z,93353.19
2022-10-21T20:43:24.299Z,93356.06
2022-10-21T20:46:27.759Z,93348.22
2022-10-21T20:49:32.076Z,93351.97
2022-10-21T20:52:35.064Z,93347.63
2022-10-21T20:55:38.188Z,93347.28
2022-10-21T20:58:42.350Z,93358.09
2022-10-21T21:01:47.356Z,93362.78
2022-10-21T21:04:50.505Z,93353.78
2022-10-21T21:07:53.507Z,93366.25
2022-10-21T21:11:01.832Z,93371.72
2022-10-21T21:14:04.873Z,93374.72
2022-10-21T21:17:07.913Z,93372.13
2022-10-21T21:20:11.398Z,93376.63
2022-10-21T21:23:14.293Z,93371.97
2022-10-21T21:26:23.173Z,93377.75
2022-10-21T21:29:26.186Z,93378.78
2022-10-21T21:32:29.429Z,93381.22
2022-10-21T21:35:32.373Z,93383.09
2022-10-21T21:38:35.881Z,93376.56
2022-10-21T21:41:38.911Z,93374.66
2022-10-21T21:44:41.957Z,93357.94
2022-10-21T21:47:44.953Z,93368.53
2022-10-21T21:50:48.737Z,93373.41
2022-10-21T21:53:52.391Z,93369.63
2022-10-21T21:57:16.021Z,93368.91
2022-10-21T22:00:18.578Z,93366.97
2022-10-21T22:03:21.770Z,93376.88
2022-10-21T22:06:28.297Z,93380.28
2022-10-21T22:09:31.635Z,93378.63
2022-10-21T22:12:34.666Z,93386.28
2022-10-21T22:15:48.165Z,93386.13
2022-10-21T22:18:51.935Z,93388.91
2022-10-21T22:21:54.936Z,93393.47
2022-10-21T22:24:57.897Z,93385.25
2022-10-21T22:28:00.890Z,93392.00
2022-10-21T22:31:09.991Z,93398.63
2022-10-21T22:34:12.984Z,93389.56
2022-10-21T22:37:15.994Z,93393.13
2022-10-21T22:40:19.063Z,93389.38
2022-10-21T22:43:22.590Z,93400.66
2022-10-21T22:46:40.946Z,93397.38
2022-10-21T22:49:44.328Z,93407.75
2022-10-21T22:52:47.380Z,93413.38
2022-10-21T22:55:50.548Z,93407.44
2022-10-21T22:58:53.557Z,93406.84
2022-10-21T23:01:56.525Z,93399.13
2022-10-21T23:04:59.542Z,93411.19
2022-10-21T23:08:02.490Z,93415.22
2022-10-21T23:11:05.626Z,93420.06
2022-10-21T23:14:10.091Z,93416.22
2022-10-21T23:17:13.168Z,93413.38
2022-10-21T23:20:16.120Z,93424.88
2022-10-21T23:23:19.182Z,93420.59
2022-10-21T23:26:22.271Z,93413.19
2022-10-21T23:29:25.335Z,93427.22
2022-10-21T23:32:28.353Z,93426.41
2022-10-21T23:35:31.525Z,93425.94
2022-10-21T23:38:34.467Z,93430.69
2022-10-21T23:41:37.483Z,93430.31
2022-10-21T23:44:40.709Z,93434.78
2022-10-21T23:47:44.009Z,93437.75
2022-10-21T23:50:47.238Z,93446.91
2022-10-21T23:53:50.260Z,93442.16
2022-10-21T23:56:53.253Z,93445.56
2022-10-21T23:59:56.350Z,93447.09
